createdAt,value
2019-05-01T00:01:47.923Z,99.90
2019-05-01T00:04:28.471Z,99.90
2019-05-01T00:07:08.523Z,99.90
2019-05-01T00:09:38.092Z,99.90
2019-05-01T00:12:07.947Z,99.90
2019-05-01T00:14:37.372Z,99.90
2019-05-01T00:17:07.051Z,99.90
2019-05-01T00:19:36.411Z,99.90
2019-05-01T00:22:06.004Z,99.90
2019-05-01T00:24:35.360Z,99.90
2019-05-01T00:27:04.813Z,99.90
2019-05-01T00:29:34.255Z,99.90
2019-05-01T00:32:03.671Z,99.90
2019-05-01T00:34:33.021Z,99.90
2019-05-01T00:37:02.394Z,99.90
2019-05-01T00:39:31.808Z,99.90
2019-05-01T00:42:01.192Z,99.90
2019-05-01T00:44:30.545Z,99.90
2019-05-01T00:46:59.913Z,99.90
2019-05-01T00:49:29.343Z,99.90
2019-05-01T00:51:58.708Z,99.90
2019-05-01T00:54:29.038Z,99.90
2019-05-01T00:57:00.044Z,99.90
2019-05-01T00:59:43.040Z,99.90
2019-05-01T01:02:14.057Z,99.90
2019-05-01T01:04:43.536Z,99.90
2019-05-01T01:07:12.882Z,99.90
2019-05-01T01:09:42.255Z,99.90
2019-05-01T01:12:11.637Z,99.90
2019-05-01T01:14:41.005Z,99.90
2019-05-01T01:17:10.374Z,99.90
2019-05-01T01:19:39.737Z,99.90
2019-05-01T01:22:09.158Z,99.90
2019-05-01T01:24:39.709Z,99.90
2019-05-01T01:27:10.337Z,99.90
2019-05-01T01:29:39.702Z,99.90
2019-05-01T01:32:09.039Z,99.90
2019-05-01T01:34:38.411Z,99.90
2019-05-01T01:37:07.834Z,99.90
2019-05-01T01:39:37.358Z,99.90
2019-05-01T01:42:08.215Z,99.90
2019-05-01T01:44:54.643Z,99.90
2019-05-01T01:47:24.465Z,99.90
2019-05-01T01:49:54.947Z,99.90
2019-05-01T01:52:25.564Z,99.90
2019-05-01T01:54:55.712Z,99.90
2019-05-01T01:57:25.155Z,99.90
2019-05-01T01:59:54.829Z,99.90
2019-05-01T02:02:37.647Z,99.90
2019-05-01T02:05:11.553Z,99.90
2019-05-01T02:07:41.527Z,99.90
2019-05-01T02:10:12.557Z,99.90
2019-05-01T02:12:42.478Z,99.90
2019-05-01T02:15:12.238Z,99.90
2019-05-01T02:17:41.604Z,99.90
2019-05-01T02:20:11.699Z,99.90
2019-05-01T02:22:41.279Z,99.90
2019-05-01T02:25:12.162Z,99.90
2019-05-01T02:27:46.150Z,99.90
2019-05-01T02:30:17.221Z,99.90
2019-05-01T02:32:47.494Z,99.90
2019-05-01T02:35:17.997Z,99.90
2019-05-01T02:37:48.784Z,99.90
2019-05-01T02:40:51.370Z,99.90
2019-05-01T02:43:22.692Z,99.90
2019-05-01T02:45:55.311Z,99.90
2019-05-01T02:48:27.940Z,99.90
2019-05-01T02:51:00.387Z,99.90
2019-05-01T02:53:32.644Z,99.90
2019-05-01T02:56:14.142Z,99.90
2019-05-01T02:58:45.106Z,99.90
2019-05-01T03:01:14.851Z,99.90
2019-05-01T03:03:44.401Z,99.90
2019-05-01T03:06:14.152Z,99.90
2019-05-01T03:08:44.317Z,99.90
2019-05-01T03:11:13.728Z,99.90
2019-05-01T03:13:45.544Z,99.90
2019-05-01T03:16:15.653Z,99.90
2019-05-01T03:18:50.344Z,99.90
2019-05-01T03:21:24.004Z,99.90
2019-05-01T03:24:11.141Z,99.90
2019-05-01T03:26:40.810Z,99.90
2019-05-01T03:29:10.245Z,99.90
2019-05-01T03:31:40.116Z,99.90
2019-05-01T03:34:09.560Z,99.90
2019-05-01T03:36:39.363Z,99.90
2019-05-01T03:39:08.779Z,99.90
2019-05-01T03:41:38.667Z,99.90
2019-05-01T03:44:08.491Z,99.90
2019-05-01T03:46:37.936Z,99.90
2019-05-01T03:49:07.331Z,99.90
2019-05-01T03:51:37.342Z,99.90
2019-05-01T03:54:07.127Z,99.90
2019-05-01T03:56:36.692Z,99.90
2019-05-01T03:59:06.708Z,99.90
2019-05-01T04:01:37.906Z,99.90
2019-05-01T04:04:09.424Z,99.90
2019-05-01T04:06:38.828Z,99.90
2019-05-01T04:09:08.607Z,99.90
2019-05-01T04:11:38.188Z,99.90
2019-05-01T04:14:07.688Z,99.90
2019-05-01T04:16:37.763Z,99.90
2019-05-01T04:19:07.323Z,99.90
2019-05-01T04:21:41.588Z,99.90
2019-05-01T04:24:11.032Z,99.90
2019-05-01T04:26:41.128Z,99.90
2019-05-01T04:29:15.168Z,99.90
2019-05-01T04:31:46.529Z,99.90
2019-05-01T04:34:26.583Z,99.90
2019-05-01T04:37:01.005Z,99.90
2019-05-01T04:39:30.488Z,99.90
2019-05-01T04:42:00.062Z,99.90
2019-05-01T04:44:29.627Z,99.90
2019-05-01T04:46:59.384Z,99.90
2019-05-01T04:49:29.716Z,99.90
2019-05-01T04:51:59.291Z,99.90
2019-05-01T04:54:28.799Z,99.90
2019-05-01T04:56:58.303Z,99.90
2019-05-01T04:59:27.723Z,99.90
2019-05-01T05:02:02.026Z,99.90
2019-05-01T05:04:31.802Z,99.90
2019-05-01T05:07:01.402Z,99.90
2019-05-01T05:09:45.374Z,99.90
2019-05-01T05:12:20.131Z,99.90
2019-05-01T05:14:56.807Z,99.90
2019-05-01T05:17:26.996Z,99.90
2019-05-01T05:19:56.908Z,99.90
2019-05-01T05:22:26.521Z,99.90
2019-05-01T05:24:55.953Z,99.90
2019-05-01T05:27:25.338Z,99.90
2019-05-01T05:29:56.979Z,99.90
2019-05-01T05:32:28.724Z,99.90
2019-05-01T05:34:59.717Z,99.90
2019-05-01T05:37:49.573Z,99.90
2019-05-01T05:40:19.471Z,99.90
2019-05-01T05:42:49.236Z,99.90
2019-05-01T05:45:19.557Z,99.90
2019-05-01T05:47:49.603Z,99.90
2019-05-01T05:50:20.584Z,99.90
2019-05-01T05:52:53.002Z,99.90
2019-05-01T05:55:32.780Z,99.90
2019-05-01T05:58:05.438Z,99.90
2019-05-01T06:00:54.455Z,99.90
2019-05-01T06:03:44.567Z,99.90
2019-05-01T06:06:33.291Z,99.90
2019-05-01T06:09:08.917Z,99.90
2019-05-01T06:11:50.803Z,99.90
2019-05-01T06:14:41.583Z,99.90
2019-05-01T06:17:12.655Z,99.90
2019-05-01T06:19:49.998Z,99.90
2019-05-01T06:22:40.844Z,99.90
2019-05-01T06:25:22.461Z,99.90
2019-05-01T06:27:53.442Z,99.90
2019-05-01T06:30:22.951Z,99.90
2019-05-01T06:32:52.380Z,99.90
2019-05-01T06:35:22.062Z,99.90
2019-05-01T06:38:02.306Z,99.90
2019-05-01T06:40:40.466Z,99.90
2019-05-01T06:43:25.225Z,99.90
2019-05-01T06:46:11.247Z,99.90
2019-05-01T06:49:07.147Z,99.90
2019-05-01T06:51:41.369Z,99.90
2019-05-01T06:54:16.356Z,99.90
2019-05-01T06:56:44.884Z,99.90
2019-05-01T06:59:16.299Z,99.90
2019-05-01T07:01:45.361Z,99.90
2019-05-01T07:04:15.848Z,99.90
2019-05-01T07:06:45.369Z,99.90
2019-05-01T07:09:27.392Z,99.90
2019-05-01T07:11:47.719Z,99.90
2019-05-01T07:14:17.598Z,99.90
2019-05-01T07:16:47.227Z,99.90
2019-05-01T07:19:18.057Z,99.90
2019-05-01T07:21:49.403Z,99.90
2019-05-01T07:24:19.111Z,99.90
2019-05-01T07:26:49.229Z,99.90
2019-05-01T07:29:20.426Z,99.90
2019-05-01T07:31:49.973Z,99.90
2019-05-01T07:34:21.617Z,99.90
2019-05-01T07:36:50.103Z,99.90
2019-05-01T07:39:20.748Z,99.90
2019-05-01T07:41:50.340Z,99.90
2019-05-01T07:44:23.917Z,99.90
2019-05-01T07:47:07.142Z,99.90
2019-05-01T07:49:52.640Z,99.90
2019-05-01T07:52:23.914Z,99.90
2019-05-01T07:54:55.287Z,99.90
2019-05-01T07:57:26.959Z,99.90
2019-05-01T07:59:58.394Z,99.90
2019-05-01T08:02:31.132Z,99.90
2019-05-01T08:04:58.839Z,99.90
2019-05-01T08:07:32.424Z,99.90
2019-05-01T08:09:59.252Z,99.90
2019-05-01T08:12:28.611Z,99.90
2019-05-01T08:14:58.045Z,99.90
2019-05-01T08:17:29.108Z,99.90
2019-05-01T08:20:09.834Z,99.90
2019-05-01T08:22:38.905Z,99.90
2019-05-01T08:25:08.570Z,99.90
2019-05-01T08:27:42.616Z,99.90
2019-05-01T08:30:30.548Z,99.90
2019-05-01T08:33:14.666Z,99.90
2019-05-01T08:35:43.948Z,99.90
2019-05-01T08:38:13.323Z,99.90
2019-05-01T08:40:42.763Z,99.90
2019-05-01T08:43:13.679Z,99.90
2019-05-01T08:46:01.497Z,99.90
2019-05-01T08:48:37.573Z,99.90
2019-05-01T08:51:06.427Z,99.90
2019-05-01T08:53:35.859Z,99.90
2019-05-01T08:56:05.609Z,99.90
2019-05-01T08:58:34.979Z,99.90
2019-05-01T09:01:10.708Z,99.90
2019-05-01T09:03:37.855Z,99.90
2019-05-01T09:06:07.299Z,99.90
2019-05-01T09:08:36.943Z,99.90
2019-05-01T09:11:06.349Z,99.90
2019-05-01T09:13:35.726Z,99.90
2019-05-01T09:16:06.077Z,99.90
2019-05-01T09:18:35.413Z,99.90
2019-05-01T09:21:04.954Z,99.90
2019-05-01T09:23:34.776Z,99.90
2019-05-01T09:26:15.959Z,99.90
2019-05-01T09:28:45.369Z,99.90
2019-05-01T09:43:42.126Z,99.90
2019-05-01T09:46:11.580Z,99.90
2019-05-01T09:48:41.148Z,99.90
2019-05-01T09:51:28.850Z,99.90
2019-05-01T09:54:15.376Z,99.90
2019-05-01T09:56:44.868Z,99.90
2019-05-01T09:59:18.932Z,99.90
2019-05-01T10:01:49.830Z,99.90
2019-05-01T10:04:19.189Z,99.90
2019-05-01T10:06:52.421Z,99.90
2019-05-01T10:09:19.685Z,99.90
2019-05-01T10:11:49.192Z,99.90
2019-05-01T10:14:18.712Z,99.90
2019-05-01T10:16:48.077Z,99.90
2019-05-01T10:19:17.434Z,99.90
2019-05-01T10:21:46.819Z,99.90
2019-05-01T10:24:16.176Z,99.90
2019-05-01T10:26:47.218Z,99.90
2019-05-01T10:29:21.512Z,99.90
2019-05-01T10:31:56.537Z,99.90
2019-05-01T10:34:45.679Z,99.90
2019-05-01T10:37:15.072Z,99.90
2019-05-01T10:39:44.604Z,99.90
2019-05-01T10:42:14.055Z,99.90
2019-05-01T10:44:43.419Z,99.90
2019-05-01T10:47:15.782Z,99.90
2019-05-01T10:49:45.172Z,99.90
2019-05-01T10:52:14.717Z,99.90
2019-05-01T10:54:46.508Z,99.90
2019-05-01T10:57:14.505Z,99.90
2019-05-01T10:59:43.848Z,99.90
2019-05-01T11:02:16.910Z,99.90
2019-05-01T11:04:46.055Z,99.90
2019-05-01T11:07:15.496Z,99.90
2019-05-01T11:09:46.407Z,99.90
2019-05-01T11:12:15.845Z,99.90
2019-05-01T11:14:45.279Z,99.90
2019-05-01T11:17:14.679Z,99.90
2019-05-01T11:19:44.120Z,99.90
2019-05-01T11:22:13.481Z,99.90
2019-05-01T11:24:42.838Z,99.90
2019-05-01T11:27:12.344Z,99.90
2019-05-01T11:29:41.701Z,99.90
2019-05-01T11:32:18.510Z,99.90
2019-05-01T11:34:49.595Z,99.90
2019-05-01T11:37:32.604Z,99.90
2019-05-01T11:40:06.157Z,99.90
2019-05-01T11:42:35.646Z,99.50
2019-05-01T11:45:10.832Z,99.90
2019-05-01T11:47:40.209Z,99.90
2019-05-01T11:50:09.903Z,99.90
2019-05-01T11:52:39.284Z,99.90
2019-05-01T11:55:08.948Z,99.90
2019-05-01T11:57:38.539Z,99.90
2019-05-01T12:00:11.563Z,99.90
2019-05-01T12:02:41.555Z,99.90
2019-05-01T12:05:11.018Z,98.70
2019-05-01T12:07:42.520Z,98.50
2019-05-01T12:10:14.375Z,97.20
2019-05-01T12:12:43.225Z,98.70
2019-05-01T12:15:13.308Z,96.70
2019-05-01T12:17:44.396Z,97.00
2019-05-01T12:20:14.448Z,96.30
2019-05-01T12:22:43.838Z,99.40
2019-05-01T12:25:14.207Z,98.80
2019-05-01T12:27:43.608Z,99.80
2019-05-01T12:30:15.009Z,98.40
2019-05-01T12:32:44.406Z,97.20
2019-05-01T12:35:13.910Z,97.90
2019-05-01T12:37:44.950Z,98.40
2019-05-01T12:40:16.229Z,98.20
2019-05-01T12:42:46.658Z,98.20
2019-05-01T12:45:22.809Z,98.10
2019-05-01T12:47:59.744Z,96.90
2019-05-01T12:50:29.175Z,96.20
2019-05-01T12:53:00.282Z,97.00
2019-05-01T12:55:31.483Z,96.50
2019-05-01T12:58:00.168Z,95.00
2019-05-01T13:00:41.179Z,94.80
2019-05-01T13:03:11.246Z,96.20
2019-05-01T13:05:40.640Z,96.20
2019-05-01T13:08:10.030Z,95.60
2019-05-01T13:10:39.482Z,95.90
2019-05-01T13:13:11.102Z,95.70
2019-05-01T13:15:40.044Z,96.80
2019-05-01T13:18:09.487Z,95.30
2019-05-01T13:20:38.852Z,95.60
2019-05-01T13:23:08.383Z,95.20
2019-05-01T13:25:37.816Z,95.10
2019-05-01T13:28:11.701Z,95.60
2019-05-01T13:30:54.681Z,96.90
2019-05-01T13:33:24.186Z,95.50
2019-05-01T13:35:53.632Z,94.90
2019-05-01T13:38:23.024Z,95.20
2019-05-01T13:40:52.470Z,96.50
2019-05-01T13:43:21.834Z,95.90
2019-05-01T13:45:51.340Z,96.60
2019-05-01T13:48:20.728Z,95.40
2019-05-01T13:50:50.080Z,95.90
2019-05-01T13:53:20.222Z,95.00
2019-05-01T13:55:49.710Z,94.70
2019-05-01T13:58:19.132Z,94.60
2019-05-01T14:00:48.509Z,95.00
2019-05-01T14:03:18.013Z,95.30
2019-05-01T14:05:47.387Z,95.00
2019-05-01T14:08:16.790Z,94.60
2019-05-01T14:10:46.145Z,96.00
2019-05-01T14:13:15.665Z,95.70
2019-05-01T14:15:46.750Z,94.50
2019-05-01T14:18:16.402Z,94.60
2019-05-01T14:21:01.608Z,95.70
2019-05-01T14:23:35.494Z,95.40
2019-05-01T14:26:09.687Z,95.60
2019-05-01T14:28:39.044Z,96.80
2019-05-01T14:31:08.582Z,96.80
2019-05-01T14:33:39.511Z,96.20
2019-05-01T14:36:09.026Z,95.80
2019-05-01T14:38:41.004Z,97.00
2019-05-01T14:41:10.408Z,96.80
2019-05-01T14:43:40.088Z,96.90
2019-05-01T14:46:09.513Z,95.40
2019-05-01T14:48:38.896Z,95.60
2019-05-01T14:51:08.279Z,95.90
2019-05-01T14:53:38.228Z,96.10
2019-05-01T14:56:07.666Z,96.80
2019-05-01T14:58:37.072Z,96.80
2019-05-01T15:01:06.503Z,97.30
2019-05-01T15:03:35.951Z,98.30
2019-05-01T15:06:07.935Z,97.50
2019-05-01T15:08:39.490Z,97.30
2019-05-01T15:11:10.001Z,98.40
2019-05-01T15:13:49.878Z,97.50
2019-05-01T15:16:23.345Z,97.80
2019-05-01T15:19:00.360Z,97.70
2019-05-01T15:21:29.795Z,97.60
2019-05-01T15:23:59.154Z,98.30
2019-05-01T15:26:28.638Z,97.60
2019-05-01T15:28:57.994Z,97.40
2019-05-01T15:31:27.426Z,98.70
2019-05-01T15:33:56.973Z,98.30
2019-05-01T15:36:26.361Z,97.20
2019-05-01T15:38:56.140Z,96.70
2019-05-01T15:41:32.874Z,97.70
2019-05-01T15:44:03.874Z,98.00
2019-05-01T15:46:34.942Z,98.00
2019-05-01T15:49:08.961Z,98.60
2019-05-01T15:51:38.338Z,97.70
2019-05-01T15:54:08.787Z,98.00
2019-05-01T15:56:38.250Z,97.90
2019-05-01T15:59:07.621Z,97.80
2019-05-01T16:01:39.984Z,98.00
2019-05-01T16:04:09.370Z,98.40
2019-05-01T16:06:38.867Z,98.70
2019-05-01T16:09:08.787Z,98.50
2019-05-01T16:11:56.022Z,98.70
2019-05-01T16:14:28.323Z,99.00
2019-05-01T16:16:59.383Z,99.90
2019-05-01T16:19:28.850Z,99.90
2019-05-01T16:21:58.272Z,99.90
2019-05-01T16:24:28.700Z,99.90
2019-05-01T16:26:58.074Z,99.90
2019-05-01T16:29:27.510Z,99.90
2019-05-01T16:31:56.946Z,99.90
2019-05-01T16:34:26.657Z,99.90
2019-05-01T16:36:56.101Z,99.90
2019-05-01T16:39:39.149Z,99.90
2019-05-01T16:42:10.216Z,99.90
2019-05-01T16:44:41.303Z,99.90
2019-05-01T16:47:10.819Z,99.90
2019-05-01T16:49:40.228Z,99.90
2019-05-01T16:52:09.805Z,99.90
2019-05-01T16:54:39.229Z,99.90
2019-05-01T16:57:10.309Z,99.90
2019-05-01T16:59:39.672Z,99.90
2019-05-01T17:02:17.921Z,99.90
2019-05-01T17:07:50.613Z,99.90
2019-05-01T17:10:24.639Z,99.90
2019-05-01T17:12:55.801Z,99.90
2019-05-01T17:15:35.876Z,99.90
2019-05-01T17:18:06.111Z,99.90
2019-05-01T17:20:35.561Z,99.90
2019-05-01T17:23:05.926Z,99.90
2019-05-01T17:25:36.820Z,99.90
2019-05-01T17:28:08.355Z,99.90
2019-05-01T17:30:40.800Z,99.90
2019-05-01T17:33:10.235Z,99.90
2019-05-01T17:35:41.826Z,99.90
2019-05-01T17:38:10.912Z,99.90
2019-05-01T17:40:40.267Z,99.90
2019-05-01T17:43:13.552Z,99.90
2019-05-01T17:45:40.906Z,99.90
2019-05-01T17:48:10.394Z,99.90
2019-05-01T17:50:39.779Z,99.90
2019-05-01T17:53:09.136Z,99.90
2019-05-01T17:55:41.250Z,99.90
2019-05-01T17:58:12.278Z,99.90
2019-05-01T18:00:46.311Z,99.90
2019-05-01T18:03:17.460Z,99.90
2019-05-01T18:06:01.422Z,99.90
2019-05-01T18:08:28.835Z,99.90
2019-05-01T18:10:58.216Z,99.90
2019-05-01T18:13:27.765Z,99.90
2019-05-01T18:15:58.962Z,99.90
2019-05-01T18:18:28.449Z,99.90
2019-05-01T18:21:01.067Z,99.90
2019-05-01T18:23:32.098Z,99.90
2019-05-01T18:26:09.973Z,99.90
2019-05-01T18:28:41.260Z,99.90
2019-05-01T18:31:12.345Z,99.90
2019-05-01T18:33:43.269Z,99.90
2019-05-01T18:36:12.719Z,99.90
2019-05-01T18:38:47.665Z,99.90
2019-05-01T18:41:19.351Z,99.90
2019-05-01T18:43:48.745Z,99.90
2019-05-01T18:46:18.372Z,99.90
2019-05-01T18:48:47.755Z,99.90
2019-05-01T18:51:17.126Z,99.90
2019-05-01T18:53:46.636Z,99.90
2019-05-01T18:56:16.027Z,99.90
2019-05-01T18:58:45.540Z,99.90
2019-05-01T19:01:16.841Z,99.90
2019-05-01T19:03:48.014Z,99.90
2019-05-01T19:06:17.485Z,99.90
2019-05-01T19:08:46.903Z,99.90
2019-05-01T19:11:16.560Z,99.90
2019-05-01T19:13:46.104Z,99.90
2019-05-01T19:16:17.059Z,99.90
2019-05-01T19:18:46.636Z,99.90
2019-05-01T19:21:17.848Z,99.90
2019-05-01T19:23:47.383Z,99.90
2019-05-01T19:26:17.175Z,99.90
2019-05-01T19:28:48.266Z,99.90
2019-05-01T19:31:17.774Z,99.90
2019-05-01T19:33:47.233Z,99.90
2019-05-01T19:36:16.684Z,99.90
2019-05-01T19:38:48.039Z,99.90
2019-05-01T19:41:17.701Z,99.90
2019-05-01T19:43:47.443Z,99.90
2019-05-01T19:46:19.870Z,99.90
2019-05-01T19:48:50.710Z,99.90
2019-05-01T19:51:24.080Z,99.90
2019-05-01T19:53:53.402Z,99.90
2019-05-01T19:56:24.399Z,99.90
2019-05-01T19:58:53.936Z,99.90
2019-05-01T20:01:28.932Z,99.90
2019-05-01T20:03:58.582Z,99.90
2019-05-01T20:06:28.262Z,99.90
2019-05-01T20:08:57.822Z,99.90
2019-05-01T20:11:29.369Z,99.90
2019-05-01T20:13:58.922Z,99.90
2019-05-01T20:16:30.858Z,99.90
2019-05-01T20:19:02.011Z,99.90
2019-05-01T20:21:31.531Z,99.90
2019-05-01T20:24:04.297Z,99.90
2019-05-01T20:26:34.008Z,99.90
2019-05-01T20:29:03.204Z,99.90
2019-05-01T20:31:50.404Z,99.90
2019-05-01T20:34:20.305Z,99.90
2019-05-01T20:36:49.733Z,99.90
2019-05-01T20:39:19.131Z,99.90
2019-05-01T20:41:49.302Z,99.90
2019-05-01T20:44:23.549Z,99.90
2019-05-01T20:46:53.362Z,99.90
2019-05-01T20:49:22.804Z,99.90
2019-05-01T20:51:52.195Z,99.90
2019-05-01T20:54:21.675Z,99.90
2019-05-01T20:57:04.686Z,99.90
2019-05-01T20:59:35.258Z,99.90
2019-05-01T21:02:08.141Z,99.90
2019-05-01T21:04:41.724Z,99.90
2019-05-01T21:07:15.405Z,99.90
2019-05-01T21:09:47.586Z,99.90
2019-05-01T21:12:18.591Z,99.90
2019-05-01T21:14:49.458Z,99.90
2019-05-01T21:17:19.379Z,99.90
2019-05-01T21:19:48.818Z,99.90
2019-05-01T21:22:18.286Z,99.90
2019-05-01T21:24:47.702Z,99.90
2019-05-01T21:27:17.237Z,99.90
2019-05-01T21:29:46.603Z,99.90
2019-05-01T21:32:18.349Z,99.90
2019-05-01T21:34:47.208Z,99.90
2019-05-01T21:37:16.566Z,99.90
2019-05-01T21:39:46.096Z,99.90
2019-05-01T21:42:16.278Z,99.90
2019-05-01T21:44:47.288Z,99.90
2019-05-01T21:47:16.683Z,99.90
2019-05-01T21:49:47.211Z,99.90
2019-05-01T21:52:17.971Z,99.90
2019-05-01T21:54:50.138Z,99.90
2019-05-01T21:57:19.258Z,99.90
2019-05-01T21:59:50.411Z,99.90
2019-05-01T22:02:20.100Z,99.90
2019-05-01T22:04:49.568Z,99.90
2019-05-01T22:07:19.001Z,99.90
2019-05-01T22:09:50.499Z,99.90
2019-05-01T22:12:19.724Z,99.90
2019-05-01T22:14:50.915Z,99.90
2019-05-01T22:17:22.119Z,99.90
2019-05-01T22:19:51.557Z,99.90
2019-05-01T22:22:28.824Z,99.90
2019-05-01T22:25:03.224Z,99.90
2019-05-01T22:27:37.544Z,99.90
2019-05-01T22:30:24.347Z,99.90
2019-05-01T22:33:04.301Z,99.90
2019-05-01T22:35:35.375Z,99.90
2019-05-01T22:38:06.276Z,99.90
2019-05-01T22:40:37.532Z,99.90
2019-05-01T22:43:07.207Z,99.90
2019-05-01T22:45:36.611Z,99.90
2019-05-01T22:48:05.959Z,99.90
2019-05-01T22:50:35.306Z,99.90
2019-05-01T22:53:07.857Z,99.90
2019-05-01T22:55:36.718Z,99.90
2019-05-01T22:58:06.134Z,99.90
2019-05-01T23:00:46.311Z,99.90
2019-05-01T23:03:20.356Z,99.90
2019-05-01T23:05:49.714Z,99.90
2019-05-01T23:08:19.071Z,99.90
2019-05-01T23:10:48.869Z,99.90
2019-05-01T23:13:18.215Z,99.90
2019-05-01T23:15:51.509Z,99.90
2019-05-01T23:18:19.838Z,99.90
2019-05-01T23:20:49.304Z,99.90
2019-05-01T23:23:18.751Z,99.90
2019-05-01T23:25:48.251Z,99.90
2019-05-01T23:28:17.645Z,99.90
2019-05-01T23:30:47.141Z,99.90
2019-05-01T23:33:16.915Z,99.90
2019-05-01T23:35:46.276Z,99.90
2019-05-01T23:38:15.743Z,99.90
2019-05-01T23:40:46.161Z,99.90
2019-05-01T23:43:16.153Z,99.90
2019-05-01T23:45:45.632Z,99.90
2019-05-01T23:48:15.021Z,99.90
2019-05-01T23:50:45.568Z,99.90
2019-05-01T23:53:15.975Z,99.90
2019-05-01T23:55:45.357Z,99.90
2019-05-01T23:58:15.176Z,99.90
